Terminal Aerodrome Forecast
Issued by NWS

Home | Current Version | Previous Version | Text Only | Print | Product List | Glossary On
Versions: 1 2 3 4 5 6 7 8 9 10 11 12 13 14 15 16 17 18 19
000
FTUS41 KBGM 220800 AAA
TAFRME
TAF AMD
KRME 220817Z 2208/2306 29010G16KT P6SM OVC015
      TEMPO 2208/2212 5SM -SHRA BR OVC006
     FM221500 29012G20KT P6SM SCT015 OVC025
     FM222300 29012KT P6SM SCT025 BKN035=

USA.gov is the U.S. government's official web portal to all federal, state and local government web resources and services.